Time;durP1;ratioP1;P1;durP2;ratioP2;P2;SDS_P1;SDS_P2;PMS_P1;PMS_P2;Temp;Humidity;BMP_temperature;BMP_pressure;BME280_temperature;BME280_humidity;BME280_pressure;Samples;Min_cycle;Max_cycle;Signal;HPM_P1;HPM_P2
2022/09/29 00:11:09;;;;;;;2.53;0.60;;;;;;;23.30;50.69;98037.28;6010789;23;20235;-93
2022/09/29 00:13:35;;;;;;;1.70;0.77;;;;;;;23.28;51.41;98032.13;6006456;23;20185;-93
2022/09/29 00:16:23;;;;;;;1.60;0.60;;;;;;;23.33;51.53;98035.06;6041497;23;20621;-93
2022/09/29 00:18:56;;;;;;;1.07;0.50;;;;;;;23.33;51.61;98024.38;6051762;23;20146;-93
2022/09/29 00:21:26;;;;;;;1.03;0.50;;;;;;;23.47;51.43;98020.03;6127721;23;20163;-93
2022/09/29 00:23:59;;;;;;;1.10;0.63;;;;;;;23.56;51.09;98018.91;6128733;23;20538;-93
2022/09/29 00:27:07;;;;;;;;;;;;;;;;;;;;;
2022/09/29 00:29:35;;;;;;;2.40;0.70;;;;;;;23.51;51.53;98026.66;6107558;23;20226;-92
2022/09/29 00:32:03;;;;;;;1.10;0.63;;;;;;;23.62;51.10;98024.34;6126629;23;20549;-93
2022/09/29 00:34:55;;;;;;;;;;;;;;;;;;;;;
2022/09/29 00:38:18;;;;;;;2.30;1.13;;;;;;;23.56;50.88;98029.59;6128364;23;20247;-94
2022/09/29 00:44:28;;;;;;;;;;;;;;;;;;;;;
2022/09/29 01:05:14;;;;;;;;;;;;;;;;;;;;;
2022/09/29 01:08:31;;;;;;;1.80;0.40;;;;;;;22.97;52.42;97997.63;5872308;24;20240;-93
2022/09/29 01:11:58;;;;;;;;;;;;;;;;;;;;;
2022/09/29 01:14:19;;;;;;;1.47;0.67;;;;;;;22.87;51.91;97999.75;5946799;24;20242;-93
2022/09/29 01:17:06;;;;;;;;;;;;;;;;;;;;;
2022/09/29 01:20:05;;;;;;;1.93;0.63;;;;;;;22.76;52.07;98002.88;5955445;24;20226;-93
2022/09/29 01:22:57;;;;;;;2.60;0.80;;;;;;;22.85;51.87;97998.28;6064415;23;20154;-93
2022/09/29 01:25:37;;;;;;;0.70;0.37;;;;;;;22.84;51.81;97994.78;6083148;23;20246;-93
2022/09/29 01:28:33;;;;;;;2.37;0.83;;;;;;;22.79;52.24;97999.03;6125860;23;20152;-92
2022/09/29 01:31:31;;;;;;;2.57;0.57;;;;;;;22.79;51.80;98009.72;6101099;23;20215;-92
2022/09/29 01:34:39;;;;;;;2.27;0.60;;;;;;;22.53;52.83;98018.16;6101416;23;20144;-93
2022/09/29 01:37:15;;;;;;;4.00;0.80;;;;;;;22.41;52.79;98022.25;6101236;23;20178;-93
2022/09/29 01:40:14;;;;;;;1.73;0.60;;;;;;;22.31;53.08;98019.84;6127579;23;20206;-93
2022/09/29 01:42:58;;;;;;;1.30;0.40;;;;;;;22.31;53.13;98006.50;6101671;23;20144;-92
2022/09/29 01:45:56;;;;;;;2.27;0.70;;;;;;;22.41;53.08;98007.06;6101384;23;20144;-92
2022/09/29 01:48:34;;;;;;;3.80;0.93;;;;;;;22.39;52.86;98006.44;6101387;23;20148;-92
2022/09/29 01:51:08;;;;;;;0.63;0.37;;;;;;;22.36;53.09;98006.78;6101213;23;20147;-93
2022/09/29 01:53:54;;;;;;;;;;;;;;;;;;;;;
2022/09/29 01:56:50;;;;;;;1.40;0.50;;;;;;;22.25;53.29;98001.88;6127426;23;20659;-93
2022/09/29 01:59:51;;;;;;;0.90;0.40;;;;;;;22.09;53.51;98002.03;6101198;23;20163;-93
2022/09/29 02:02:27;;;;;;;4.50;0.80;;;;;;;21.96;54.41;98002.66;6100872;23;20164;-93
2022/09/29 02:05:00;;;;;;;4.33;0.60;;;;;;;21.96;53.99;98007.16;6101080;23;20152;-93
2022/09/29 02:07:53;;;;;;;0.83;0.43;;;;;;;21.93;54.21;98004.88;6101727;23;20187;-93
2022/09/29 02:10:27;;;;;;;2.57;0.40;;;;;;;21.95;53.88;98016.19;6125896;23;20637;-93
2022/09/29 02:13:01;;;;;;;2.87;0.77;;;;;;;21.95;53.99;98013.50;6100988;23;20152;-92
2022/09/29 02:15:35;;;;;;;1.13;0.53;;;;;;;22.04;53.57;98015.09;6101559;23;20254;-94
2022/09/29 02:18:12;;;;;;;4.17;0.97;;;;;;;22.00;54.11;98022.63;6101078;23;20227;-92
2022/09/29 02:20:50;;;;;;;;;;;;;;;;;;;;;
2022/09/29 02:23:21;;;;;;;2.23;0.70;;;;;;;22.07;53.99;98036.09;6127309;23;20216;-93
2022/09/29 02:25:53;;;;;;;2.53;0.83;;;;;;;22.14;54.07;98033.53;6114486;23;20139;-93
2022/09/29 02:28:19;;;;;;;1.30;0.60;;;;;;;21.87;54.90;98042.91;6125925;23;20601;-93
2022/09/29 02:30:45;;;;;;;1.00;0.60;;;;;;;21.78;55.66;98039.44;6125639;23;20250;-92
2022/09/29 02:33:22;;;;;;;1.53;0.83;;;;;;;21.68;55.67;98038.00;6125528;23;20190;-93
2022/09/29 02:36:01;;;;;;;1.70;0.73;;;;;;;21.62;56.01;98046.75;6125461;23;20171;-93
2022/09/29 02:38:53;;;;;;;4.90;1.03;;;;;;;21.66;56.27;98048.03;6125409;23;20477;-93
2022/09/29 02:42:00;;;;;;;1.37;0.60;;;;;;;21.65;56.42;98049.03;6113355;23;20160;-94
2022/09/29 02:44:47;;;;;;;4.47;0.80;;;;;;;21.71;56.54;98048.31;6124506;23;20166;-92
2022/09/29 02:47:18;;;;;;;1.43;0.60;;;;;;;21.70;57.18;98050.16;6125732;23;20140;-93
2022/09/29 02:49:49;;;;;;;3.60;0.77;;;;;;;21.66;57.77;98051.53;6125375;23;20159;-93
2022/09/29 02:52:56;;;;;;;2.83;1.23;;;;;;;21.69;57.75;98058.34;6127006;23;20148;-94
2022/09/29 02:55:40;;;;;;;4.83;0.80;;;;;;;21.75;57.81;98057.66;6125425;23;20148;-93
2022/09/29 02:58:13;;;;;;;1.43;0.80;;;;;;;21.83;57.59;98049.56;6125302;23;20147;-93
2022/09/29 03:00:45;;;;;;;2.43;0.83;;;;;;;21.81;57.94;98048.91;6126350;23;20148;-93
2022/09/29 03:03:10;;;;;;;2.33;0.63;;;;;;;21.86;57.60;98054.59;6125419;23;20548;-93
2022/09/29 03:05:36;;;;;;;2.17;0.90;;;;;;;21.90;57.77;98047.91;6125241;23;20166;-93
2022/09/29 03:08:02;;;;;;;8.70;1.40;;;;;;;21.91;57.53;98049.53;6125349;23;20315;-92
2022/09/29 03:10:27;;;;;;;5.10;0.90;;;;;;;21.87;57.99;98056.25;6126279;23;20158;-93
2022/09/29 03:13:03;;;;;;;0.93;0.60;;;;;;;21.77;58.35;98056.47;6126146;23;20163;-93
2022/09/29 03:15:43;;;;;;;;;;;;;;;;;;;;;
2022/09/29 03:18:26;;;;;;;;;;;;;;;;;;;;;
2022/09/29 03:20:56;;;;;;;2.17;0.60;;;;;;;21.86;58.17;98043.91;6127265;23;20623;-93
2022/09/29 03:23:26;;;;;;;5.33;1.23;;;;;;;21.86;58.36;98043.91;6125148;23;20171;-93
2022/09/29 03:25:52;;;;;;;2.47;0.97;;;;;;;21.88;58.64;98048.06;6126551;23;20152;-94
2022/09/29 03:28:18;;;;;;;1.27;0.60;;;;;;;21.85;58.75;98050.25;6125708;23;20545;-93
2022/09/29 03:30:46;;;;;;;2.07;0.87;;;;;;;21.88;58.73;98049.94;6125669;23;20160;-92
2022/09/29 03:33:12;;;;;;;1.27;0.63;;;;;;;21.92;58.89;98051.22;6125013;23;20166;-92
2022/09/29 03:35:37;;;;;;;4.17;0.80;;;;;;;21.92;58.78;98054.72;6125136;23;20258;-94
2022/09/29 03:38:03;;;;;;;5.73;1.67;;;;;;;21.99;58.77;98052.16;6126002;23;20207;-93
2022/09/29 03:40:29;;;;;;;4.63;0.87;;;;;;;22.11;58.25;98050.75;6125537;23;20152;-93
2022/09/29 03:42:54;;;;;;;1.50;0.80;;;;;;;22.13;58.34;98045.22;6125566;23;20182;-95
2022/09/29 03:45:22;;;;;;;1.60;0.57;;;;;;;22.17;58.12;98044.66;6125391;23;20171;-94
2022/09/29 03:47:47;;;;;;;5.63;0.90;;;;;;;22.06;58.38;98045.13;6125270;23;20238;-93
2022/09/29 03:50:16;;;;;;;4.27;0.90;;;;;;;21.97;58.99;98048.84;6125757;23;20250;-93
2022/09/29 03:52:42;;;;;;;4.27;1.33;;;;;;;22.15;58.59;98046.69;6125467;23;20152;-93
2022/09/29 03:55:07;;;;;;;2.30;1.10;;;;;;;22.27;57.53;98042.59;6126405;23;20227;-94
2022/09/29 03:57:40;;;;;;;1.70;0.70;;;;;;;22.31;57.16;98048.38;6126956;23;20164;-93
2022/09/29 04:01:17;;;;;;;;;;;;;;;;;;;;;
2022/09/29 04:03:32;;;;;;;2.07;0.70;;;;;;;22.33;57.37;98055.19;6088858;23;20176;-93
2022/09/29 04:06:32;;;;;;;2.10;0.73;;;;;;;22.29;56.93;98056.59;6127347;23;20163;-94
2022/09/29 04:09:13;;;;;;;3.77;0.80;;;;;;;22.23;57.46;98059.97;6125912;23;20476;-94
2022/09/29 04:11:41;;;;;;;6.00;1.07;;;;;;;22.07;58.06;98060.09;6127358;23;20159;-93
2022/09/29 04:14:31;;;;;;;2.10;1.10;;;;;;;21.95;58.53;98065.03;6127948;23;20160;-94
2022/09/29 04:17:59;;;;;;;10.30;1.53;;;;;;;21.68;59.72;98057.53;6127089;23;20262;-94
2022/09/29 04:21:18;;;;;;;;;;;;;;;;;;;;;
2022/09/29 04:24:22;;;;;;;;;;;;;;;;;;;;;
2022/09/29 04:27:07;;;;;;;4.70;1.03;;;;;;;21.38;60.98;98061.84;6127933;23;20638;-92
2022/09/29 04:29:43;;;;;;;3.43;0.90;;;;;;;21.33;61.37;98063.41;6128011;23;20171;-93
2022/09/29 04:32:08;;;;;;;3.70;1.10;;;;;;;21.43;61.35;98067.47;6127047;23;20228;-92
2022/09/29 04:34:36;;;;;;;3.67;1.20;;;;;;;21.60;60.67;98064.72;6126865;23;20156;-92
2022/09/29 04:37:10;;;;;;;3.00;1.70;;;;;;;21.65;60.01;98070.38;6126790;23;20187;-93
2022/09/29 04:39:46;;;;;;;3.37;0.87;;;;;;;21.63;60.18;98075.06;6126532;23;20156;-94
2022/09/29 04:42:32;;;;;;;1.63;0.83;;;;;;;21.54;60.44;98068.91;6126715;23;20148;-93
2022/09/29 04:45:03;;;;;;;3.80;1.00;;;;;;;21.62;60.33;98078.75;6127346;23;20646;-93
2022/09/29 04:47:50;;;;;;;2.50;0.80;;;;;;;21.58;60.23;98077.41;6127068;23;20144;-93
2022/09/29 04:50:58;;;;;;;2.97;0.90;;;;;;;21.58;60.60;98093.41;6127858;23;20136;-93
2022/09/29 05:00:46;;;;;;;2.83;0.90;;;;;;;21.74;60.03;98082.66;5953540;23;20166;-93
2022/09/29 05:03:24;;;;;;;2.23;0.80;;;;;;;21.85;59.79;98087.59;6108687;23;20171;-93
2022/09/29 05:06:24;;;;;;;;;;;;;;;;;;;;;
2022/09/29 05:08:54;;;;;;;2.63;1.00;;;;;;;21.89;59.61;98091.59;6127170;23;20657;-93
2022/09/29 05:11:22;;;;;;;4.83;1.33;;;;;;;21.92;59.73;98094.75;6126380;23;20166;-93
2022/09/29 05:13:49;;;;;;;2.03;0.80;;;;;;;21.98;59.47;98090.53;6127421;23;20175;-93
2022/09/29 05:16:17;;;;;;;1.77;0.93;;;;;;;22.12;59.12;98092.41;6127052;23;20172;-93
2022/09/29 05:18:43;;;;;;;2.57;0.60;;;;;;;22.17;59.07;98090.03;6126350;23;20162;-95
2022/09/29 05:21:09;;;;;;;2.47;0.93;;;;;;;22.23;58.85;98094.66;6126493;23;20148;-93
2022/09/29 05:23:34;;;;;;;5.93;1.40;;;;;;;22.34;58.76;98088.91;6127611;23;20533;-93
2022/09/29 05:26:07;;;;;;;2.83;0.87;;;;;;;22.50;58.12;98090.63;6126174;23;20190;-93
2022/09/29 05:28:33;;;;;;;3.83;0.80;;;;;;;22.73;57.18;98093.25;6126192;23;20154;-93
2022/09/29 05:31:08;;;;;;;2.27;1.00;;;;;;;22.93;56.63;98100.53;6127139;23;20231;-94
2022/09/29 05:33:36;;;;;;;610.47;174.90;;;;;;;23.09;55.55;98096.88;6127388;23;20260;-93
2022/09/29 05:36:12;;;;;;;86.73;27.03;;;;;;;23.21;54.76;98092.72;6127019;23;20176;-95
2022/09/29 05:38:38;;;;;;;30.60;6.60;;;;;;;23.34;54.89;98097.41;6126525;23;20242;-94
2022/09/29 05:41:09;;;;;;;20.47;6.87;;;;;;;23.39;55.07;98087.03;6126022;23;20160;-93
2022/09/29 05:43:34;;;;;;;12.77;3.80;;;;;;;23.41;54.96;98099.19;6125878;23;20588;-94
2022/09/29 05:46:18;;;;;;;10.90;3.37;;;;;;;23.61;54.87;98092.22;6126015;23;20171;-93
2022/09/29 05:49:31;;;;;;;4.13;1.83;;;;;;;23.79;53.69;98102.53;6125616;23;20163;-95
2022/09/29 05:52:47;;;;;;;;;;;;;;;;;;;;;
2022/09/29 06:06:29;;;;;;;4.57;1.40;;;;;;;28.86;41.80;98093.13;5845609;24;20186;-95
2022/09/29 06:17:09;;;;;;;5.07;0.98;;;;;;;32.73;34.98;98103.72;5737846;24;20295;-95
2022/09/29 06:20:04;;;;;;;108.32;42.22;;;;;;;32.97;34.12;98094.28;5779143;24;20164;-93
2022/09/29 06:23:23;;;;;;;4.55;2.15;;;;;;;32.63;34.33;98089.94;5792601;24;20160;-94
2022/09/29 06:41:57;;;;;;;;;;;;;;;;;;;;;
2022/09/29 06:49:05;;;;;;;;;;;;;;;;;;;;;
2022/09/29 06:56:09;;;;;;;;;;;;;;;;;;;;;
2022/09/29 06:58:35;;;;;;;0.93;0.30;;;;;;;35.84;28.20;98109.13;5786441;24;20196;-94
2022/09/29 07:01:02;;;;;;;3.85;0.57;;;;;;;35.39;28.42;98112.41;5821268;24;20162;-94
2022/09/29 07:03:29;;;;;;;72.95;23.30;;;;;;;35.09;28.14;98113.88;5926371;24;20176;-96
2022/09/29 07:06:00;;;;;;;268.95;110.53;;;;;;;34.51;28.60;98101.09;6022744;23;20580;-94
2022/09/29 07:12:33;;;;;;;;;;;;;;;;;;;;;
2022/09/29 07:48:19;;;;;;;1.92;0.80;;;;;;;30.97;36.14;98123.44;6097270;23;20428;-94
2022/09/29 08:02:50;;;;;;;3.25;0.90;;;;;;;31.08;36.26;98124.47;5958338;23;20184;-94
2022/09/29 08:12:01;;;;;;;5.57;1.10;;;;;;;31.02;38.09;98117.31;5904157;24;20173;-94
2022/09/29 08:18:08;;;;;;;3.97;1.50;;;;;;;31.44;37.41;98123.41;5821446;24;20189;-96
2022/09/29 08:28:19;;;;;;;4.70;2.05;;;;;;;31.45;38.14;98123.19;6121366;23;20206;-93
2022/09/29 08:31:40;;;;;;;5.45;1.77;;;;;;;31.35;37.97;98116.69;6109634;23;20211;-95
2022/09/29 08:34:09;;;;;;;3.45;1.40;;;;;;;30.96;38.10;98112.84;6024841;23;20168;-94
2022/09/29 08:40:02;;;;;;;7.28;1.63;;;;;;;31.00;38.75;98104.00;5967781;24;20160;-96
2022/09/29 08:43:04;;;;;;;6.78;1.85;;;;;;;31.14;38.90;98104.59;5966127;23;20519;-94
2022/09/29 08:46:17;;;;;;;;;;;;;;;;;;;;;
2022/09/29 08:48:46;;;;;;;3.10;1.58;;;;;;;31.03;37.33;98108.13;6045046;23;20555;-94
2022/09/29 08:51:33;;;;;;;3.95;1.77;;;;;;;30.92;37.52;98107.06;6025670;23;20174;-95
2022/09/29 08:54:18;;;;;;;2.38;1.08;;;;;;;30.86;38.27;98107.97;6047196;23;20292;-95
2022/09/29 09:03:06;;;;;;;2.00;1.10;;;;;;;31.12;37.17;98117.53;6069853;23;20171;-94
2022/09/29 09:06:34;;;;;;;3.28;1.40;;;;;;;31.14;36.74;98120.00;6120464;23;20144;-96
2022/09/29 09:13:39;;;;;;;2.55;1.25;;;;;;;31.34;35.51;98113.16;6038226;23;20166;-94
2022/09/29 09:20:15;;;;;;;3.53;1.45;;;;;;;31.30;35.02;98119.28;6090808;23;20246;-94
2022/09/29 09:23:56;;;;;;;1.75;1.05;;;;;;;31.39;34.34;98112.47;6139309;23;20128;-95
2022/09/29 09:27:29;;;;;;;4.20;2.03;;;;;;;31.35;34.18;98105.84;6105558;23;20167;-96
2022/09/29 09:30:34;;;;;;;2.22;1.15;;;;;;;31.42;34.62;98112.00;5967488;24;20234;-95
2022/09/29 09:33:26;;;;;;;2.72;0.88;;;;;;;31.49;34.52;98123.53;5966767;24;20167;-95
2022/09/29 09:36:23;;;;;;;4.85;1.35;;;;;;;31.54;34.62;98120.94;6078723;23;20195;-95
2022/09/29 09:42:27;;;;;;;5.50;1.77;;;;;;;31.54;34.62;98116.34;6073847;23;20180;-93
2022/09/29 09:45:17;;;;;;;;;;;;;;;;;;;;;
2022/09/29 09:47:52;;;;;;;3.00;0.90;;;;;;;31.86;32.97;98100.47;6079570;23;20157;-95
2022/09/29 09:50:48;;;;;;;1.40;0.68;;;;;;;31.70;33.56;98105.81;6049002;23;20160;-95
2022/09/29 09:53:54;;;;;;;5.18;1.92;;;;;;;31.82;34.26;98091.16;6051109;23;20165;-94
2022/09/29 09:57:16;;;;;;;3.08;1.45;;;;;;;32.12;34.33;98085.53;5991199;23;20187;-96
2022/09/29 10:00:21;;;;;;;2.08;0.85;;;;;;;32.29;32.86;98082.81;6003553;23;20165;-95
2022/09/29 10:02:53;;;;;;;2.88;1.30;;;;;;;32.42;33.22;98080.63;6047592;23;20150;-95
2022/09/29 10:05:54;;;;;;;2.72;0.90;;;;;;;32.30;32.77;98081.75;6100333;23;20235;-95
2022/09/29 10:08:39;;;;;;;3.25;1.40;;;;;;;32.20;33.10;98077.00;6078691;23;20157;-94
2022/09/29 10:11:31;;;;;;;2.90;0.90;;;;;;;32.23;31.86;98071.88;6052238;23;20509;-94
2022/09/29 10:14:41;;;;;;;1.67;0.65;;;;;;;32.28;31.54;98073.06;6090641;23;20185;-95
2022/09/29 10:27:26;;;;;;;2.88;0.88;;;;;;;32.85;31.07;98062.88;5991300;24;20227;-92
2022/09/29 10:33:25;;;;;;;3.45;0.80;;;;;;;33.25;29.98;98063.50;5990050;24;20210;-94
2022/09/29 10:36:07;;;;;;;2.08;1.10;;;;;;;33.30;29.58;98056.25;5993881;24;20198;-95
2022/09/29 10:38:53;;;;;;;3.35;0.90;;;;;;;33.09;29.09;98062.47;5994542;24;20171;-94
2022/09/29 10:50:51;;;;;;;2.03;0.75;;;;;;;32.87;28.62;98058.03;6046040;23;20165;-95
2022/09/29 10:56:53;;;;;;;9.13;1.42;;;;;;;33.02;28.43;98059.06;6051436;23;20209;-95
2022/09/29 11:00:00;;;;;;;1.90;0.68;;;;;;;32.64;27.86;98059.03;6026408;23;20161;-95
2022/09/29 11:14:49;;;;;;;1.33;0.60;;;;;;;33.14;26.77;98053.56;6143591;23;20131;-94
2022/09/29 11:28:01;;;;;;;2.20;0.70;;;;;;;33.91;26.73;98041.47;5902674;24;20567;-95
2022/09/29 11:30:49;;;;;;;1.00;0.45;;;;;;;34.22;25.47;98039.09;5906143;24;20145;-94
2022/09/29 11:34:15;;;;;;;;;;;;;;;;;;;;;
2022/09/29 11:37:41;;;;;;;1.17;0.43;;;;;;;34.62;24.55;98046.81;5891521;24;20208;-94
2022/09/29 11:40:54;;;;;;;;;;;;;;;;;;;;;
2022/09/29 11:47:39;;;;;;;0.57;0.38;;;;;;;35.05;23.97;98031.06;5993318;23;20154;-94
2022/09/29 11:54:27;;;;;;;;;;;;;;;;;;;;;
2022/09/29 11:56:53;;;;;;;1.55;0.85;;;;;;;35.47;23.43;98028.25;6012019;23;20270;-93
2022/09/29 12:03:06;;;;;;;1.10;0.47;;;;;;;36.15;22.24;98015.38;6040331;23;20240;-92
2022/09/29 12:06:08;;;;;;;0.90;0.35;;;;;;;35.87;22.36;98019.41;6127903;23;20151;-94
2022/09/29 12:09:22;;;;;;;1.55;0.57;;;;;;;36.09;22.99;98013.72;6130496;23;20167;-94
2022/09/29 12:12:20;;;;;;;1.38;0.52;;;;;;;36.16;22.59;98014.28;6134919;23;20667;-95
2022/09/29 12:15:34;;;;;;;0.68;0.30;;;;;;;36.15;22.13;98008.00;6134836;23;20235;-94
2022/09/29 12:22:07;;;;;;;2.47;0.65;;;;;;;36.51;22.56;98017.03;6100604;23;20193;-94
2022/09/29 12:24:37;;;;;;;1.48;0.73;;;;;;;36.84;22.49;98010.16;6109291;23;20163;-95
2022/09/29 12:31:08;;;;;;;3.22;0.68;;;;;;;36.55;22.72;98009.13;6047674;23;20196;-94
2022/09/29 12:33:42;;;;;;;1.42;0.52;;;;;;;36.08;22.53;98017.56;6026439;23;20775;-95
2022/09/29 12:36:52;;;;;;;1.27;0.40;;;;;;;36.04;22.82;98021.91;6021807;23;20319;-94
2022/09/29 12:40:21;;;;;;;1.40;0.45;;;;;;;36.18;22.97;98023.00;6019978;23;20173;-93
2022/09/29 12:43:43;;;;;;;3.13;0.80;;;;;;;36.33;22.54;98025.75;6129930;23;20143;-95
2022/09/29 12:46:38;;;;;;;2.58;0.82;;;;;;;35.87;24.13;98026.75;6133484;23;20160;-94
2022/09/29 12:55:59;;;;;;;2.33;0.75;;;;;;;34.66;26.69;98020.69;6141171;23;20190;-91
2022/09/29 12:58:43;;;;;;;1.40;0.73;;;;;;;34.37;26.75;98023.72;6140117;23;20256;-93
2022/09/29 13:02:03;;;;;;;1.38;0.60;;;;;;;34.24;27.09;98024.16;6127939;23;20156;-92
2022/09/29 13:05:05;;;;;;;1.80;0.65;;;;;;;33.99;27.00;98026.59;6055630;23;20157;-93
2022/09/29 13:07:58;;;;;;;1.13;0.60;;;;;;;33.74;27.78;98023.63;6052739;23;20157;-95
2022/09/29 13:10:54;;;;;;;2.95;0.73;;;;;;;33.63;28.56;98019.16;6136607;23;20259;-94
2022/09/29 13:13:35;;;;;;;4.13;0.93;;;;;;;33.23;29.16;98022.19;6135821;23;20148;-94
2022/09/29 13:16:19;;;;;;;1.73;0.77;;;;;;;33.29;28.72;98029.31;6139138;23;20168;-95
2022/09/29 13:19:32;;;;;;;1.58;0.90;;;;;;;33.49;29.20;98024.16;6137222;23;20225;-93
2022/09/29 13:22:20;;;;;;;1.77;0.73;;;;;;;33.78;28.65;98022.06;6140228;23;20166;-96
2022/09/29 13:25:25;;;;;;;3.67;0.82;;;;;;;33.42;29.15;98029.75;6138663;23;20155;-93
2022/09/29 13:28:00;;;;;;;5.63;1.55;;;;;;;33.44;29.46;98028.69;6140450;23;20156;-93
2022/09/29 13:30:52;;;;;;;2.97;0.98;;;;;;;33.62;29.33;98036.56;6141684;23;20155;-95
2022/09/29 13:33:40;;;;;;;0.98;0.70;;;;;;;33.66;30.08;98043.94;6140205;23;20215;-93
2022/09/29 13:36:10;;;;;;;2.30;0.95;;;;;;;33.58;30.33;98030.78;6133136;23;20601;-94
2022/09/29 13:38:39;;;;;;;1.58;0.77;;;;;;;33.37;30.53;98018.84;6137171;23;20144;-94
2022/09/29 13:41:38;;;;;;;2.25;1.25;;;;;;;33.18;31.33;98031.06;6139491;23;20151;-94
2022/09/29 13:44:36;;;;;;;3.22;1.15;;;;;;;32.70;32.52;98025.50;6142889;23;20151;-95
2022/09/29 13:47:34;;;;;;;3.05;0.90;;;;;;;32.19;32.71;98037.38;6135791;23;20439;-94
2022/09/29 13:50:44;;;;;;;3.30;1.38;;;;;;;31.76;33.09;98039.81;6133058;23;20142;-94
2022/09/29 13:53:45;;;;;;;1.73;1.05;;;;;;;31.55;33.57;98047.53;6108023;23;20156;-95
2022/09/29 13:56:25;;;;;;;2.63;0.98;;;;;;;31.58;33.16;98036.22;6053126;23;20276;-91
2022/09/29 13:58:55;;;;;;;2.40;1.40;;;;;;;31.24;33.73;98047.13;6090688;23;20159;-91
2022/09/29 14:01:42;;;;;;;2.70;1.30;;;;;;;30.95;34.00;98052.47;6134787;23;20164;-92
2022/09/29 14:04:46;;;;;;;1.80;1.08;;;;;;;30.60;34.58;98054.31;6131093;23;20155;-92
2022/09/29 14:07:32;;;;;;;3.88;1.33;;;;;;;30.72;34.38;98049.72;6137049;23;20151;-92
2022/09/29 14:10:26;;;;;;;3.45;1.23;;;;;;;30.47;34.75;98054.56;6135754;23;20191;-93
2022/09/29 14:13:34;;;;;;;3.42;1.52;;;;;;;30.46;34.90;98052.88;6093586;23;20160;-96
2022/09/29 14:16:13;;;;;;;2.35;1.20;;;;;;;30.38;35.09;98047.81;6102608;23;20249;-94
2022/09/29 14:19:08;;;;;;;3.33;1.77;;;;;;;30.31;35.10;98049.78;6132176;23;20162;-92
2022/09/29 14:22:00;;;;;;;3.53;1.40;;;;;;;30.48;34.95;98050.78;6135066;23;20144;-93
2022/09/29 14:25:03;;;;;;;4.15;1.65;;;;;;;30.63;34.59;98045.75;6136476;23;20200;-92
2022/09/29 14:28:58;;;;;;;6.35;1.55;;;;;;;30.93;34.41;98049.16;6132618;23;20178;-94
2022/09/29 14:34:29;;;;;;;2.67;1.10;;;;;;;31.29;33.49;98044.53;6092502;23;20187;-95
2022/09/29 14:36:59;;;;;;;2.72;1.20;;;;;;;31.24;33.70;98047.13;6135506;23;20183;-95
2022/09/29 14:39:34;;;;;;;4.75;1.42;;;;;;;31.13;33.64;98054.22;6135506;23;20496;-94
2022/09/29 14:41:59;;;;;;;3.83;1.58;;;;;;;30.98;33.61;98048.44;6133857;23;20151;-94
2022/09/29 14:51:56;;;;;;;3.30;1.60;;;;;;;30.70;33.89;98049.16;6134982;23;20198;-94
2022/09/29 14:54:02;;;;;;;4.13;1.20;;;;;;;30.02;35.29;98046.06;6132597;23;20256;-94
2022/09/29 14:56:48;;;;;;;3.80;1.13;;;;;;;29.97;35.51;98053.22;6136304;23;20178;-95
2022/09/29 14:59:41;;;;;;;2.95;1.70;;;;;;;29.88;35.41;98060.00;6134090;23;20143;-94
2022/09/29 15:02:34;;;;;;;4.55;1.33;;;;;;;29.75;35.96;98053.69;6133231;23;20167;-92
2022/09/29 15:05:10;;;;;;;2.53;1.17;;;;;;;29.80;35.86;98053.88;6139478;23;20227;-92
2022/09/29 15:07:41;;;;;;;3.20;1.33;;;;;;;29.59;36.65;98050.78;6130566;23;20202;-95
2022/09/29 15:10:41;;;;;;;2.63;1.48;;;;;;;29.45;36.50;98055.56;6128595;23;20182;-93
2022/09/29 15:13:30;;;;;;;2.40;1.45;;;;;;;29.30;37.10;98057.81;6129179;23;20174;-93
2022/09/29 15:16:16;;;;;;;2.83;1.40;;;;;;;29.19;36.95;98058.53;6126922;23;20180;-92
2022/09/29 15:18:56;;;;;;;2.50;1.38;;;;;;;29.04;37.28;98058.91;6129038;23;20156;-93
2022/09/29 15:21:34;;;;;;;3.10;1.58;;;;;;;29.21;37.36;98069.97;6126629;23;20152;-93
2022/09/29 15:24:20;;;;;;;2.03;1.25;;;;;;;29.18;37.21;98062.28;6129194;23;20182;-96
2022/09/29 15:26:49;;;;;;;2.40;1.27;;;;;;;29.03;38.08;98075.31;6131695;23;20163;-94
2022/09/29 15:29:19;;;;;;;4.18;1.50;;;;;;;28.99;37.85;98083.03;6131232;23;20234;-94
2022/09/29 15:31:49;;;;;;;2.70;1.70;;;;;;;28.97;37.77;98078.91;6134055;23;20559;-94
2022/09/29 15:34:21;;;;;;;4.40;2.17;;;;;;;29.02;37.80;98084.44;6135010;23;20238;-94
2022/09/29 15:36:52;;;;;;;2.35;1.38;;;;;;;28.78;38.46;98075.34;6130317;23;20183;-92
2022/09/29 15:39:27;;;;;;;2.17;1.52;;;;;;;28.62;38.76;98087.53;6131564;23;20164;-93
2022/09/29 15:45:30;;;;;;;2.58;1.20;;;;;;;28.45;38.94;98094.50;6069723;23;20164;-93
2022/09/29 15:48:07;;;;;;;3.20;1.48;;;;;;;28.20;39.58;98088.22;6046619;23;20157;-93
2022/09/29 15:50:54;;;;;;;2.60;1.38;;;;;;;28.25;39.43;98093.00;6053775;23;20153;-94
2022/09/29 15:53:32;;;;;;;5.25;1.63;;;;;;;28.28;39.52;98100.59;6088933;23;20155;-96
2022/09/29 15:59:48;;;;;;;10.43;2.33;;;;;;;28.11;40.07;98113.81;6135286;23;20630;-94
2022/09/29 16:03:08;;;;;;;4.72;1.70;;;;;;;28.02;40.48;98112.38;6133225;23;20207;-94
2022/09/29 16:06:00;;;;;;;3.13;1.35;;;;;;;28.10;40.05;98128.31;6076938;23;20156;-95
2022/09/29 16:08:29;;;;;;;3.20;1.90;;;;;;;27.91;40.56;98129.19;6133657;23;20163;-94
2022/09/29 16:11:01;;;;;;;4.13;1.60;;;;;;;27.84;40.83;98131.94;6132254;23;20600;-92
2022/09/29 16:13:51;;;;;;;4.60;1.73;;;;;;;27.80;40.97;98138.81;6132520;23;20226;-94
2022/09/29 16:19:36;;;;;;;2.95;1.60;;;;;;;27.88;40.99;98138.53;6130538;23;20287;-93
2022/09/29 16:22:24;;;;;;;4.45;2.22;;;;;;;27.69;41.01;98144.03;6111366;23;20167;-92
2022/09/29 16:25:28;;;;;;;3.20;1.80;;;;;;;27.67;41.57;98157.72;6114204;23;20579;-95
2022/09/29 16:38:50;;;;;;;2.67;1.73;;;;;;;27.41;41.88;98185.50;6067221;23;20215;-95
2022/09/29 16:41:39;;;;;;;4.10;2.00;;;;;;;27.36;41.94;98187.97;6117400;23;20143;-94
2022/09/29 16:44:18;;;;;;;2.83;1.52;;;;;;;27.08;42.52;98192.78;6111310;23;20172;-93
2022/09/29 16:47:02;;;;;;;3.00;1.50;;;;;;;26.99;43.13;98185.13;6107815;23;20142;-92
2022/09/29 16:49:42;;;;;;;4.80;2.08;;;;;;;26.96;42.91;98197.13;6110172;23;20586;-94
2022/09/29 16:52:22;;;;;;;2.88;1.40;;;;;;;27.04;43.23;98198.78;6139890;23;20151;-94
2022/09/29 16:55:49;;;;;;;9.10;1.77;;;;;;;26.99;43.18;98201.28;6110686;23;20483;-95
2022/09/29 16:58:21;;;;;;;4.57;1.80;;;;;;;26.88;43.52;98202.72;6097514;23;20160;-94
2022/09/29 17:00:47;;;;;;;2.80;1.27;;;;;;;26.91;43.21;98202.31;6102976;23;20160;-94
2022/09/29 17:03:20;;;;;;;6.30;1.98;;;;;;;26.77;43.61;98203.31;6105012;23;20239;-93
2022/09/29 17:05:53;;;;;;;6.68;2.38;;;;;;;26.83;43.73;98199.81;6106750;23;20152;-94
2022/09/29 17:08:22;;;;;;;3.60;1.58;;;;;;;26.65;44.36;98203.06;6129313;23;20136;-91
2022/09/29 17:10:56;;;;;;;3.83;1.85;;;;;;;26.75;44.15;98202.69;6104867;23;20238;-93
2022/09/29 17:13:28;;;;;;;3.28;1.60;;;;;;;26.65;44.71;98196.88;6105885;23;20156;-92
2022/09/29 17:15:54;;;;;;;3.33;1.65;;;;;;;26.51;45.03;98203.25;6132123;23;20136;-92
2022/09/29 17:24:52;;;;;;;5.15;1.67;;;;;;;26.59;44.67;98211.97;6140273;23;20155;-93
2022/09/29 17:34:06;;;;;;;2.80;1.50;;;;;;;26.43;45.42;98222.25;6084798;23;20353;-92
2022/09/29 17:40:02;;;;;;;7.15;1.95;;;;;;;26.43;45.42;98216.88;6139384;23;20194;-95
2022/09/29 17:42:30;;;;;;;3.42;1.45;;;;;;;26.24;45.95;98230.06;6107878;23;20647;-94
2022/09/29 17:45:40;;;;;;;2.33;1.30;;;;;;;26.29;45.68;98225.94;6112875;23;20159;-95
2022/09/29 17:48:07;;;;;;;3.08;1.63;;;;;;;26.21;45.70;98225.09;6110371;23;20273;-95
2022/09/29 20:18:05;;;;;;;;;;;;;;;;;;;;;
2022/09/29 22:11:54;;;;;;;;;;;;;;;;;;;;;
2022/09/29 22:21:39;;;;;;;6.67;2.53;;;;;;;22.97;51.73;98494.75;5081160;28;20195;-94
2022/09/29 22:24:25;;;;;;;3.73;2.00;;;;;;;23.14;51.69;98496.31;5071997;28;20204;-93
2022/09/29 22:26:50;;;;;;;4.77;2.27;;;;;;;23.17;51.42;98485.28;5110984;28;20164;-92
2022/09/29 22:32:18;;;;;;;5.53;1.97;;;;;;;23.02;52.13;98489.72;5103074;28;20187;-92
2022/09/29 22:34:55;;;;;;;8.70;2.30;;;;;;;23.09;52.25;98498.69;5110698;28;20596;-93
2022/09/29 22:37:27;;;;;;;5.00;2.67;;;;;;;23.18;51.41;98504.84;5109585;28;20167;-91
2022/09/29 22:39:53;;;;;;;5.50;2.57;;;;;;;23.05;52.18;98515.28;5110260;27;20199;-92
2022/09/29 22:42:24;;;;;;;9.13;2.57;;;;;;;22.93;52.24;98508.66;5110304;28;20175;-92
2022/09/29 22:45:19;;;;;;;3.90;2.20;;;;;;;22.90;52.67;98504.50;5110584;28;20160;-92
2022/09/29 22:47:44;;;;;;;3.83;1.97;;;;;;;22.89;52.48;98501.97;5110178;28;20201;-91
2022/09/29 22:50:10;;;;;;;4.43;2.40;;;;;;;22.83;52.72;98498.16;5109426;28;20179;-92